Time;durP1;ratioP1;P1;durP2;ratioP2;P2;SDS_P1;SDS_P2;PMS_P1;PMS_P2;Temp;Humidity;BMP_temperature;BMP_pressure;BME280_temperature;BME280_humidity;BME280_pressure;Samples;Min_cycle;Max_cycle;Signal;HPM_P1;HPM_P2
2021/10/25 00:01:22;;;;;;;1.52;0.98;;;;;;;6.30;58.05;101730.92;1677310;85;21195;-64
2021/10/25 00:03:56;;;;;;;0.98;0.75;;;;;;;6.27;58.14;101733.66;1690591;84;21213;-65
2021/10/25 00:06:34;;;;;;;2.75;1.15;;;;;;;6.25;58.16;101733.74;1698883;84;21225;-65
2021/10/25 00:09:13;;;;;;;3.95;1.25;;;;;;;6.23;58.18;101740.78;1702899;84;21226;-64
2021/10/25 00:11:47;;;;;;;2.67;1.17;;;;;;;6.20;58.26;101750.47;1704485;84;21178;-64
2021/10/25 00:14:20;;;;;;;5.33;1.50;;;;;;;6.17;58.31;101744.95;1705731;84;21521;-63
2021/10/25 00:16:53;;;;;;;2.07;0.80;;;;;;;6.13;58.34;101753.81;1707325;84;21297;-63
2021/10/25 00:19:31;;;;;;;2.40;1.00;;;;;;;6.10;58.36;101762.60;1704295;84;21215;-65
2021/10/25 00:22:09;;;;;;;0.95;0.70;;;;;;;6.08;58.49;101763.58;1704170;84;21155;-65
2021/10/25 00:24:49;;;;;;;2.40;1.10;;;;;;;6.06;58.45;101763.67;1677820;84;21326;-64
2021/10/25 00:27:27;;;;;;;2.60;1.20;;;;;;;6.04;58.38;101759.45;1675552;85;21187;-65
2021/10/25 00:30:01;;;;;;;3.33;0.93;;;;;;;6.02;58.34;101769.05;1676411;85;21756;-64
2021/10/25 00:32:39;;;;;;;1.65;0.80;;;;;;;5.99;58.33;101773.11;1677651;84;21298;-64
2021/10/25 00:35:12;;;;;;;2.02;0.90;;;;;;;5.94;58.34;101773.77;1677762;85;21333;-64
2021/10/25 00:37:46;;;;;;;1.65;1.00;;;;;;;5.91;58.43;101785.16;1680478;84;21294;-63
2021/10/25 00:40:23;;;;;;;1.12;0.70;;;;;;;5.88;58.44;101787.88;1700654;84;21270;-64
2021/10/25 00:43:00;;;;;;;1.87;0.82;;;;;;;5.84;58.40;101798.04;1701445;84;21321;-64
2021/10/25 00:45:35;;;;;;;0.68;0.55;;;;;;;5.81;58.42;101797.28;1705496;84;22089;-66
2021/10/25 00:48:11;;;;;;;0.98;0.60;;;;;;;5.79;58.46;101797.81;1704088;84;21761;-64
2021/10/25 00:50:44;;;;;;;2.70;0.77;;;;;;;5.76;58.46;101798.79;1705039;84;21892;-65
2021/10/25 00:53:20;;;;;;;1.47;0.62;;;;;;;5.74;58.53;101807.11;1705688;84;21939;-64
2021/10/25 00:55:54;;;;;;;0.62;0.60;;;;;;;5.71;58.55;101808.54;1706662;84;21848;-64
2021/10/25 00:58:27;;;;;;;1.22;0.70;;;;;;;5.67;58.46;101813.49;1706362;84;21333;-64
2021/10/25 01:01:03;;;;;;;4.15;0.72;;;;;;;5.62;58.47;101821.94;1705828;84;21348;-66
2021/10/25 01:03:38;;;;;;;2.70;0.62;;;;;;;5.57;58.51;101824.34;1706317;84;22114;-65
2021/10/25 01:06:18;;;;;;;0.60;0.60;;;;;;;5.52;58.49;101829.73;1705031;84;21281;-64
2021/10/25 01:08:51;;;;;;;0.80;0.50;;;;;;;5.47;58.45;101836.05;1705336;84;21281;-62
2021/10/25 01:11:27;;;;;;;2.45;0.70;;;;;;;5.40;58.31;101833.70;1706365;84;21269;-61
2021/10/25 01:14:02;;;;;;;2.00;0.70;;;;;;;5.36;58.31;101837.80;1706953;84;21524;-61
2021/10/25 01:16:38;;;;;;;1.60;0.90;;;;;;;5.31;58.20;101839.29;1707203;84;21261;-61
2021/10/25 01:19:20;;;;;;;3.50;0.60;;;;;;;5.24;58.09;101844.34;1706400;83;21155;-65
2021/10/25 01:21:58;;;;;;;3.00;0.70;;;;;;;5.16;58.05;101851.59;1706448;84;21790;-65
2021/10/25 01:24:32;;;;;;;0.93;0.55;;;;;;;5.08;57.99;101858.88;1704832;84;21358;-65
2021/10/25 01:27:12;;;;;;;1.32;0.70;;;;;;;4.98;58.04;101861.89;1704782;84;21603;-67
2021/10/25 01:29:54;;;;;;;4.25;0.78;;;;;;;4.86;58.17;101868.42;1705570;84;22142;-66
2021/10/25 01:32:31;;;;;;;2.47;0.60;;;;;;;4.74;58.31;101867.60;1706281;84;21337;-65
2021/10/25 01:35:05;;;;;;;5.33;1.35;;;;;;;4.59;58.46;101874.67;1707071;84;22107;-63
2021/10/25 01:37:42;;;;;;;2.85;0.68;;;;;;;4.45;58.70;101881.69;1706629;82;21195;-63
2021/10/25 01:40:17;;;;;;;2.40;0.70;;;;;;;4.33;58.90;101887.33;1706058;84;21306;-64
2021/10/25 01:42:54;;;;;;;2.58;0.85;;;;;;;4.20;59.13;101890.44;1705194;84;21216;-64
2021/10/25 01:45:26;;;;;;;1.45;0.93;;;;;;;4.08;59.42;101889.14;1705071;84;21329;-64
2021/10/25 01:47:59;;;;;;;3.45;0.80;;;;;;;3.97;59.65;101896.43;1706369;84;21297;-62
2021/10/25 01:50:39;;;;;;;2.47;0.62;;;;;;;3.89;59.93;101901.88;1706571;84;21289;-63
2021/10/25 01:53:12;;;;;;;1.20;0.98;;;;;;;3.80;60.18;101907.39;1707353;84;21325;-65
2021/10/25 01:56:01;;;;;;;1.05;0.70;;;;;;;3.71;60.37;101909.45;1706913;84;21290;-64
2021/10/25 01:58:33;;;;;;;2.65;0.80;;;;;;;3.65;60.60;101921.33;1706499;84;21369;-63
2021/10/25 02:01:07;;;;;;;1.57;0.68;;;;;;;3.55;60.81;101921.23;1706783;84;21286;-64
2021/10/25 02:03:43;;;;;;;1.17;0.55;;;;;;;3.47;61.01;101925.36;1703181;84;21352;-67
2021/10/25 02:06:22;;;;;;;2.08;0.80;;;;;;;3.40;61.30;101938.97;1698754;84;21619;-64
2021/10/25 02:09:00;;;;;;;2.40;0.70;;;;;;;3.35;61.54;101943.88;1686250;84;21348;-65
2021/10/25 02:11:35;;;;;;;3.67;0.90;;;;;;;3.33;61.71;101941.80;1677867;85;21282;-64
2021/10/25 02:14:16;;;;;;;1.22;0.60;;;;;;;3.30;61.86;101953.09;1678227;84;21223;-65
2021/10/25 02:16:53;;;;;;;1.60;0.75;;;;;;;3.25;61.94;101948.95;1678656;85;21274;-64
2021/10/25 02:19:32;;;;;;;2.58;1.02;;;;;;;3.18;62.05;101956.06;1696447;84;21840;-64
2021/10/25 02:22:14;;;;;;;1.85;0.88;;;;;;;3.10;62.14;101959.36;1693102;84;21166;-64
2021/10/25 02:24:53;;;;;;;2.15;0.85;;;;;;;3.03;62.24;101972.53;1700237;84;21298;-64
2021/10/25 02:27:27;;;;;;;0.60;0.60;;;;;;;2.93;62.35;101979.72;1699265;84;21321;-64
2021/10/25 02:30:02;;;;;;;2.12;0.60;;;;;;;2.86;62.56;101973.47;1670373;86;21303;-65
2021/10/25 02:32:37;;;;;;;1.47;0.78;;;;;;;2.79;62.69;101976.70;1674174;84;21774;-63
2021/10/25 02:35:10;;;;;;;1.00;0.70;;;;;;;2.73;62.81;101974.27;1705277;84;21729;-63
2021/10/25 02:37:47;;;;;;;2.25;0.70;;;;;;;2.67;62.86;101977.88;1706385;84;21278;-62
2021/10/25 02:40:32;;;;;;;2.35;0.70;;;;;;;2.61;63.02;101992.28;1705690;84;21234;-63
2021/10/25 02:43:06;;;;;;;2.15;0.68;;;;;;;2.55;63.14;101991.62;1704003;84;21268;-63
2021/10/25 02:45:48;;;;;;;1.22;0.90;;;;;;;2.48;63.23;101993.97;1681215;84;21553;-63
2021/10/25 02:48:23;;;;;;;1.27;0.85;;;;;;;2.43;63.35;101993.25;1699116;84;21179;-65
2021/10/25 02:50:57;;;;;;;1.80;1.10;;;;;;;2.39;63.42;102001.52;1699939;84;21375;-64
2021/10/25 02:53:31;;;;;;;1.92;0.80;;;;;;;2.35;63.52;102010.69;1702135;84;21369;-65
2021/10/25 02:56:05;;;;;;;3.12;1.00;;;;;;;2.31;63.62;102007.36;1686463;84;21344;-65
2021/10/25 02:58:40;;;;;;;2.12;0.80;;;;;;;2.27;63.66;102008.31;1705114;84;21380;-64
2021/10/25 03:01:15;;;;;;;2.05;0.98;;;;;;;2.21;63.68;102013.66;1686722;84;21302;-65
2021/10/25 03:03:54;;;;;;;3.12;1.30;;;;;;;2.18;63.74;102022.77;1705324;84;21360;-65
2021/10/25 03:06:33;;;;;;;2.02;1.20;;;;;;;2.13;63.78;102020.75;1705856;84;21167;-65
2021/10/25 03:09:11;;;;;;;1.67;1.10;;;;;;;2.07;63.84;102023.50;1705596;84;21640;-65
2021/10/25 03:11:47;;;;;;;1.00;0.70;;;;;;;2.02;64.00;102027.50;1705866;84;21226;-66
2021/10/25 03:14:26;;;;;;;2.17;0.95;;;;;;;1.98;64.13;102032.31;1705775;84;21321;-64
2021/10/25 03:17:02;;;;;;;0.90;0.60;;;;;;;1.96;64.24;102033.23;1706871;84;21297;-65
2021/10/25 03:19:45;;;;;;;1.30;0.70;;;;;;;1.91;64.29;102039.81;1677439;84;21238;-64
2021/10/25 03:22:18;;;;;;;1.47;0.88;;;;;;;1.87;64.34;102045.95;1706642;84;21175;-64
2021/10/25 03:24:58;;;;;;;1.50;0.80;;;;;;;1.81;64.48;102049.99;1706516;84;21178;-65
2021/10/25 03:27:41;;;;;;;1.45;0.68;;;;;;;1.75;64.53;102044.10;1705453;84;21215;-65
2021/10/25 03:30:18;;;;;;;1.40;0.90;;;;;;;1.70;64.67;102044.22;1706141;84;21321;-65
2021/10/25 03:32:55;;;;;;;2.67;0.80;;;;;;;1.64;64.80;102052.12;1706211;84;21480;-66
2021/10/25 03:35:32;;;;;;;1.98;0.82;;;;;;;1.59;65.00;102054.39;1686695;84;21274;-64
2021/10/25 03:38:17;;;;;;;2.02;1.07;;;;;;;1.53;65.09;102049.39;1705646;84;22146;-65
2021/10/25 03:40:54;;;;;;;1.62;1.00;;;;;;;1.49;65.23;102053.76;1707415;84;21356;-64
2021/10/25 03:43:35;;;;;;;3.30;1.15;;;;;;;1.46;65.29;102058.98;1706724;84;21206;-66
2021/10/25 03:48:54;;;;;;;4.92;1.20;;;;;;;1.41;65.35;102072.42;1706774;84;21250;-64
2021/10/25 03:51:24;;;;;;;2.55;0.90;;;;;;;1.38;65.47;102074.63;1706166;84;21824;-65
2021/10/25 03:54:17;;;;;;;4.10;1.82;;;;;;;1.36;65.50;102076.87;1678167;84;21345;-64
2021/10/25 03:59:35;;;;;;;3.55;1.00;;;;;;;1.32;65.61;102095.86;1705549;84;21652;-64
2021/10/25 04:13:45;;;;;;;1.67;0.87;;;;;;;1.49;65.84;102118.72;1702297;84;21265;-63
2021/10/25 04:30:43;;;;;;;4.22;2.50;;;;;;;5.49;57.76;102135.11;1705550;84;21741;-65
2021/10/25 04:33:21;;;;;;;4.92;3.50;;;;;;;6.18;55.86;102143.22;1703836;84;21651;-66
2021/10/25 04:35:56;;;;;;;13.83;5.67;;;;;;;6.83;54.09;102141.72;1704416;84;21171;-66
2021/10/25 04:38:34;;;;;;;12.82;6.08;;;;;;;7.52;52.04;102152.53;1701176;84;21383;-64
2021/10/25 04:41:15;;;;;;;12.00;5.35;;;;;;;8.15;50.17;102154.24;1700436;84;21336;-65
2021/10/25 04:43:51;;;;;;;7.35;4.33;;;;;;;8.76;48.32;102150.73;1688504;84;21247;-65
2021/10/25 04:46:33;;;;;;;6.15;2.35;;;;;;;9.38;46.77;102157.08;1677822;85;21199;-64
2021/10/25 04:49:06;;;;;;;3.75;2.30;;;;;;;9.98;45.15;102156.30;1694929;84;21270;-63
2021/10/25 04:51:45;;;;;;;23.77;14.30;;;;;;;10.62;43.71;102160.51;1627259;85;22118;-61
2021/10/25 04:58:37;;;;;;;4.05;1.85;;;;;;;11.79;40.88;102172.52;1702421;84;21182;-64
2021/10/25 05:01:14;;;;;;;3.52;1.60;;;;;;;12.57;38.84;102169.11;1701963;84;21215;-66
2021/10/25 05:11:18;;;;;;;3.05;2.05;;;;;;;14.15;35.15;102186.83;1704101;83;21198;-67
2021/10/25 05:13:58;;;;;;;3.60;1.40;;;;;;;14.78;33.73;102192.25;1650832;86;21204;-63
2021/10/25 05:20:44;;;;;;;4.08;2.00;;;;;;;15.49;32.05;102202.54;1667792;85;21138;-65
2021/10/25 05:23:18;;;;;;;4.58;2.12;;;;;;;16.15;31.14;102209.02;1666432;85;21220;-66
2021/10/25 05:25:53;;;;;;;2.92;1.75;;;;;;;16.65;30.24;102214.62;1667544;85;21446;-68
2021/10/25 05:28:34;;;;;;;2.25;1.52;;;;;;;17.02;29.20;102208.41;1666625;85;22121;-67
2021/10/25 05:31:11;;;;;;;4.47;1.70;;;;;;;17.39;28.75;102210.88;1667479;86;21372;-66
2021/10/25 05:33:48;;;;;;;3.33;1.70;;;;;;;17.79;28.26;102214.40;1667624;85;21542;-68
2021/10/25 05:36:24;;;;;;;3.52;1.62;;;;;;;18.21;27.50;102212.88;1667558;86;21206;-69
2021/10/25 05:43:08;;;;;;;8.58;1.62;;;;;;;18.84;26.51;102221.13;1666474;85;21213;-69
2021/10/25 05:45:42;;;;;;;2.12;1.32;;;;;;;19.26;25.68;102216.30;1666186;85;21929;-67
2021/10/25 05:48:15;;;;;;;;;;;;;;;19.54;25.08;102219.84;1669172;86;21226;-68
2021/10/25 05:50:48;;;;;;;2.37;1.47;;;;;;;19.76;24.88;102227.92;1667392;85;20338;-68
2021/10/25 05:57:34;;;;;;;2.17;1.10;;;;;;;20.34;24.21;102231.92;1667733;85;21197;-68
2021/10/25 06:00:08;;;;;;;;;;;;;;;20.75;23.58;102251.23;1670098;85;21375;-67
2021/10/25 06:02:52;;;;;;;2.83;2.15;;;;;;;21.10;23.27;102244.21;1664278;86;20233;-66
2021/10/25 06:05:23;;;;;;;3.58;2.02;;;;;;;21.39;22.81;102242.06;1667341;85;21632;-64
2021/10/25 06:07:58;;;;;;;3.35;1.10;;;;;;;21.71;22.19;102251.53;1666128;85;21237;-67
2021/10/25 06:10:35;;;;;;;2.02;1.47;;;;;;;21.88;21.81;102249.80;1648037;86;21335;-64
2021/10/25 06:13:13;;;;;;;3.05;1.60;;;;;;;22.06;21.54;102259.38;1665418;86;21664;-67
2021/10/25 06:16:09;;;;;;;2.83;1.20;;;;;;;22.17;21.28;102254.23;1664787;86;21624;-65
2021/10/25 06:18:34;;;;;;;3.40;1.30;;;;;;;22.44;20.96;102253.95;1664803;86;22163;-64
2021/10/25 06:21:09;;;;;;;2.02;1.40;;;;;;;22.71;20.39;102255.51;1667288;85;21214;-65
2021/10/25 06:23:42;;;;;;;10.90;2.80;;;;;;;22.82;20.36;102252.49;1666890;85;21348;-67
2021/10/25 06:26:21;;;;;;;5.37;1.90;;;;;;;23.01;19.75;102249.97;1665325;86;22144;-67
2021/10/25 06:28:57;;;;;;;6.42;2.05;;;;;;;22.91;19.87;102252.81;1666453;86;21234;-67
2021/10/25 06:31:33;;;;;;;1.62;1.40;;;;;;;23.11;19.60;102248.80;1666960;86;21186;-68
2021/10/25 06:34:24;;;;;;;6.85;2.95;;;;;;;23.37;19.06;102248.59;1666541;85;21337;-68
2021/10/25 06:37:15;;;;;;;5.15;2.45;;;;;;;23.42;18.91;102251.59;1667766;85;21197;-68
2021/10/25 06:39:54;;;;;;;2.98;2.00;;;;;;;23.17;18.77;102250.77;1666063;85;21360;-66
2021/10/25 06:42:26;;;;;;;11.10;4.17;;;;;;;23.12;19.07;102249.64;1667938;86;21316;-69
2021/10/25 06:45:13;;;;;;;4.45;2.42;;;;;;;23.36;18.94;102258.94;1667669;85;21349;-63
2021/10/25 06:47:51;;;;;;;3.85;2.25;;;;;;;23.56;18.65;102267.41;1667480;86;21282;-68
2021/10/25 06:50:38;;;;;;;3.58;1.80;;;;;;;23.62;18.38;102259.53;1648150;86;22176;-67
2021/10/25 06:53:07;;;;;;;2.92;1.62;;;;;;;23.86;18.26;102263.97;1667353;86;21375;-64
2021/10/25 06:55:47;;;;;;;1.60;1.35;;;;;;;24.16;18.14;102266.34;1665344;86;21471;-67
2021/10/25 06:58:22;;;;;;;1.85;1.40;;;;;;;24.48;17.71;102272.31;1667464;85;21336;-68
2021/10/25 07:00:59;;;;;;;5.58;1.85;;;;;;;24.72;17.37;102272.62;1667496;86;21517;-65
2021/10/25 07:03:36;;;;;;;11.20;2.00;;;;;;;25.11;17.05;102274.66;1664425;86;21237;-67
2021/10/25 07:06:15;;;;;;;5.03;2.22;;;;;;;25.31;16.75;102270.95;1668313;85;22077;-69
2021/10/25 07:08:47;;;;;;;2.27;1.12;;;;;;;25.30;16.65;102272.79;1666843;85;21227;-66
2021/10/25 07:11:21;;;;;;;3.10;1.30;;;;;;;25.41;16.29;102270.98;1666549;86;21404;-67
2021/10/25 07:13:56;;;;;;;1.10;1.00;;;;;;;25.38;16.27;102275.90;1666458;86;21246;-71
2021/10/25 07:24:00;;;;;;;3.77;1.90;;;;;;;25.73;15.85;102285.91;1666495;86;21246;-68
2021/10/25 08:04:10;;;;;;;1.45;0.95;;;;;;;25.15;14.69;102320.72;1666763;86;21258;-69
2021/10/25 08:09:12;;;;;;;3.85;1.02;;;;;;;25.26;14.45;102329.14;1665320;84;22063;-69
2021/10/25 08:15:52;;;;;;;2.10;1.07;;;;;;;24.87;14.32;102320.93;1666395;85;21359;-68
2021/10/25 08:18:39;;;;;;;11.73;1.35;;;;;;;24.35;15.06;102332.81;1666925;86;21269;-70
2021/10/25 08:21:10;;;;;;;2.80;1.47;;;;;;;24.51;15.22;102326.85;1665589;86;21377;-64
2021/10/25 08:23:45;;;;;;;8.15;1.75;;;;;;;24.74;14.85;102325.54;1667171;86;21254;-68
2021/10/25 08:26:20;;;;;;;9.20;1.50;;;;;;;24.39;14.86;102316.72;1640301;85;21222;-67
2021/10/25 08:33:13;;;;;;;5.80;1.47;;;;;;;23.95;15.13;102325.79;1666558;86;21171;-69
2021/10/25 08:41:18;;;;;;;14.18;2.00;;;;;;;23.63;14.53;102325.39;1665496;86;21513;-69
2021/10/25 08:43:57;;;;;;;3.55;1.00;;;;;;;23.38;14.89;102327.27;1667016;86;21187;-66
2021/10/25 08:46:33;;;;;;;4.00;1.30;;;;;;;23.59;15.10;102320.55;1665561;86;21364;-68
2021/10/25 08:49:07;;;;;;;;;;;;;;;23.76;14.80;102327.53;1669316;86;21513;-64
2021/10/25 08:51:40;;;;;;;5.20;1.40;;;;;;;23.39;14.85;102332.95;1665693;86;20207;-68
2021/10/25 08:54:14;;;;;;;2.25;0.90;;;;;;;23.16;14.86;102335.97;1666311;86;21662;-66
2021/10/25 08:56:49;;;;;;;3.60;1.10;;;;;;;23.05;14.80;102327.42;1665497;86;21392;-67
2021/10/25 09:03:34;;;;;;;2.77;1.50;;;;;;;23.32;15.48;102332.43;1667240;86;21194;-71
2021/10/25 09:06:14;;;;;;;2.70;1.27;;;;;;;22.87;15.64;102326.27;1665489;86;22051;-71
2021/10/25 09:09:04;;;;;;;2.85;1.40;;;;;;;22.52;15.85;102329.20;1666627;86;21984;-70
2021/10/25 09:11:37;;;;;;;5.05;1.30;;;;;;;22.32;15.99;102323.80;1669744;84;22060;-71
2021/10/25 09:18:26;;;;;;;2.27;1.60;;;;;;;20.77;16.24;102337.61;1675468;85;21273;-67
2021/10/25 09:21:09;;;;;;;2.35;1.50;;;;;;;19.49;17.45;102329.69;1672565;85;21559;-65
2021/10/25 09:23:47;;;;;;;2.87;1.00;;;;;;;18.95;18.12;102318.84;1674497;85;21332;-67
2021/10/25 09:26:29;;;;;;;3.90;1.30;;;;;;;18.60;18.40;102322.05;1673037;85;21522;-65
2021/10/25 09:33:11;;;;;;;4.62;1.05;;;;;;;17.65;19.15;102333.16;1674420;85;21987;-67
2021/10/25 09:35:58;;;;;;;4.65;1.60;;;;;;;16.77;19.45;102319.39;1672990;85;21325;-68
2021/10/25 09:50:20;;;;;;;3.42;0.90;;;;;;;13.35;23.44;102325.96;1674491;85;21605;-63
2021/10/25 09:52:57;;;;;;;2.77;0.90;;;;;;;12.80;23.93;102323.00;1673748;85;21546;-69
2021/10/25 09:55:31;;;;;;;2.98;0.80;;;;;;;12.36;24.55;102327.66;1672107;85;22230;-62
2021/10/25 10:02:14;;;;;;;4.42;0.90;;;;;;;11.62;25.58;102331.42;1673702;85;22071;-65
2021/10/25 10:05:04;;;;;;;1.85;0.95;;;;;;;11.10;26.12;102338.45;1674492;85;21384;-65
2021/10/25 10:07:34;;;;;;;1.87;0.95;;;;;;;10.81;26.64;102340.12;1673664;85;22127;-63
2021/10/25 10:10:10;;;;;;;1.55;0.90;;;;;;;10.52;27.06;102337.44;1672397;85;21341;-63
2021/10/25 10:12:48;;;;;;;2.10;1.30;;;;;;;10.30;27.59;102332.98;1673314;85;21392;-67
2021/10/25 10:15:29;;;;;;;2.17;1.45;;;;;;;9.97;28.43;102333.87;1673316;85;22176;-66
2021/10/25 10:18:16;;;;;;;25.82;9.95;;;;;;;9.74;29.22;102330.33;1673289;85;21241;-71
2021/10/25 10:21:12;;;;;;;8.48;2.02;;;;;;;9.57;29.97;102332.97;1670349;85;21470;-64
2021/10/25 10:28:05;;;;;;;5.87;1.47;;;;;;;9.23;30.22;102338.20;1673692;85;22047;-69
2021/10/25 10:31:02;;;;;;;2.83;1.22;;;;;;;9.04;30.47;102335.67;1673268;85;21345;-67
2021/10/25 10:33:49;;;;;;;4.08;1.55;;;;;;;9.05;30.62;102336.52;1675199;85;21521;-63
2021/10/25 10:36:34;;;;;;;3.62;1.02;;;;;;;9.06;30.91;102340.36;1673281;85;21347;-63
2021/10/25 10:39:15;;;;;;;1.87;1.00;;;;;;;9.08;31.08;102337.66;1672826;85;21278;-62
2021/10/25 10:42:09;;;;;;;4.97;1.25;;;;;;;9.07;30.83;102334.67;1592284;90;21343;-62
2021/10/25 10:44:58;;;;;;;2.35;1.20;;;;;;;9.02;31.13;102327.06;1552072;90;21590;-59
2021/10/25 10:47:28;;;;;;;6.33;1.80;;;;;;;8.99;31.54;102326.36;1665854;84;21269;-66
2021/10/25 10:50:03;;;;;;;5.62;1.77;;;;;;;8.97;31.80;102333.43;1706247;84;21314;-62
2021/10/25 10:52:43;;;;;;;3.92;1.35;;;;;;;8.98;32.07;102330.73;1683545;84;21274;-61
2021/10/25 10:55:25;;;;;;;6.37;1.70;;;;;;;8.97;32.18;102329.52;1700858;84;21356;-67
2021/10/25 11:00:46;;;;;;;2.42;0.90;;;;;;;8.91;32.31;102340.28;1701514;84;21341;-62
2021/10/25 11:03:28;;;;;;;5.37;2.15;;;;;;;8.83;32.23;102344.56;1705089;84;22035;-63
2021/10/25 11:06:20;;;;;;;3.62;1.60;;;;;;;8.78;32.28;102336.10;1701286;84;21230;-64
2021/10/25 11:08:55;;;;;;;5.22;1.72;;;;;;;8.76;31.97;102343.98;1705112;84;21316;-64
2021/10/25 11:11:28;;;;;;;4.85;1.57;;;;;;;8.74;31.63;102345.02;1701477;84;21301;-68
2021/10/25 11:14:04;;;;;;;3.22;1.30;;;;;;;8.67;31.78;102348.80;1703583;84;21333;-69
2021/10/25 11:19:22;;;;;;;6.05;2.67;;;;;;;8.57;32.06;102338.44;1704597;84;21578;-63
2021/10/25 11:21:57;;;;;;;5.60;1.87;;;;;;;8.56;32.16;102341.50;1703948;84;22160;-65
2021/10/25 11:24:29;;;;;;;8.63;2.70;;;;;;;8.59;32.20;102334.84;1704586;84;21396;-67
2021/10/25 11:27:04;;;;;;;3.67;1.90;;;;;;;8.64;31.99;102342.00;1703862;84;21372;-61
2021/10/25 11:29:36;;;;;;;3.40;1.02;;;;;;;8.65;31.87;102337.59;1704067;84;21336;-62
2021/10/25 11:32:13;;;;;;;2.20;1.17;;;;;;;8.62;31.72;102342.50;1703790;84;21253;-67
2021/10/25 11:34:54;;;;;;;14.87;2.50;;;;;;;8.60;31.70;102341.73;1704440;84;21203;-64
2021/10/25 11:37:24;;;;;;;6.35;1.82;;;;;;;8.57;31.75;102349.70;1702410;83;21336;-66
2021/10/25 11:40:09;;;;;;;2.25;1.22;;;;;;;8.54;31.83;102347.71;1704090;84;22023;-67
2021/10/25 11:42:45;;;;;;;4.75;1.95;;;;;;;8.49;31.92;102344.47;1703862;84;21199;-71
2021/10/25 11:45:25;;;;;;;6.58;1.80;;;;;;;8.41;32.14;102350.04;1704168;84;21564;-64
2021/10/25 11:47:58;;;;;;;5.22;1.27;;;;;;;8.39;32.33;102345.80;1703856;84;21207;-61
2021/10/25 11:50:38;;;;;;;4.78;1.37;;;;;;;8.41;32.44;102357.88;1704492;84;21194;-68
2021/10/25 11:53:11;;;;;;;1.57;1.02;;;;;;;8.39;32.31;102358.86;1703669;84;22126;-70
2021/10/25 11:55:44;;;;;;;2.47;1.10;;;;;;;8.35;32.22;102358.17;1704029;84;21374;-67
2021/10/25 11:58:23;;;;;;;5.03;1.65;;;;;;;8.33;32.28;102352.63;1703478;84;22152;-67
2021/10/25 12:01:02;;;;;;;3.75;1.20;;;;;;;8.32;32.32;102353.53;1704228;84;21191;-66
2021/10/25 12:03:40;;;;;;;3.95;1.10;;;;;;;8.30;32.27;102352.31;1666015;86;21426;-61
2021/10/25 12:06:20;;;;;;;5.08;2.10;;;;;;;8.28;32.16;102349.39;1672631;85;21552;-60
2021/10/25 12:08:59;;;;;;;7.20;1.32;;;;;;;8.24;32.39;102356.94;1672325;85;21390;-62
2021/10/25 12:12:03;;;;;;;2.02;0.90;;;;;;;8.25;32.52;102361.23;1672889;85;22042;-61
2021/10/25 12:14:30;;;;;;;2.42;0.90;;;;;;;8.25;32.56;102358.16;1658677;84;21239;-65
2021/10/25 12:17:01;;;;;;;4.42;0.90;;;;;;;8.26;32.63;102355.10;1660659;84;21312;-65
2021/10/25 12:19:37;;;;;;;3.77;1.20;;;;;;;8.26;32.60;102354.69;1648438;87;21245;-68
2021/10/25 12:22:20;;;;;;;1.70;0.85;;;;;;;8.26;32.50;102352.49;1628097;87;21613;-63
2021/10/25 12:24:56;;;;;;;3.98;1.20;;;;;;;8.24;32.54;102357.77;1648630;87;21256;-61
2021/10/25 12:27:43;;;;;;;1.30;0.75;;;;;;;8.22;32.56;102352.22;1649648;87;21205;-64
2021/10/25 12:30:13;;;;;;;2.40;0.98;;;;;;;8.18;32.72;102352.84;1649051;87;21221;-70
2021/10/25 12:32:59;;;;;;;14.65;1.47;;;;;;;8.14;32.83;102359.95;1649539;87;21205;-65
2021/10/25 12:35:44;;;;;;;2.60;1.50;;;;;;;8.08;32.97;102353.72;1647871;87;21340;-59
2021/10/25 12:38:20;;;;;;;3.27;1.55;;;;;;;8.06;32.96;102356.00;1648562;87;21492;-62
2021/10/25 12:41:05;;;;;;;3.40;1.40;;;;;;;8.01;33.04;102355.36;1649419;87;21226;-66
2021/10/25 12:43:43;;;;;;;2.47;1.37;;;;;;;7.95;33.26;102356.47;1649479;87;21571;-66
2021/10/25 12:50:28;;;;;;;3.98;1.30;;;;;;;7.92;33.42;102360.99;1649563;87;21205;-63
2021/10/25 12:53:06;;;;;;;2.40;1.02;;;;;;;7.89;33.22;102362.42;1627502;87;21214;-64
2021/10/25 12:55:42;;;;;;;4.80;2.75;;;;;;;7.87;33.22;102369.02;1627289;87;21495;-64
2021/10/25 12:58:15;;;;;;;3.37;1.60;;;;;;;7.84;33.02;102363.93;1649873;87;21201;-63
2021/10/25 13:00:50;;;;;;;6.90;1.75;;;;;;;7.80;33.05;102369.35;1648708;87;21538;-62
2021/10/25 13:03:31;;;;;;;4.28;1.37;;;;;;;7.76;33.23;102373.02;1649730;87;21229;-63
2021/10/25 13:06:09;;;;;;;8.43;1.95;;;;;;;7.72;33.36;102368.38;1649745;87;21264;-60
2021/10/25 13:08:43;;;;;;;3.45;2.20;;;;;;;7.71;33.37;102374.52;1649501;87;21240;-70
2021/10/25 13:11:18;;;;;;;4.90;2.45;;;;;;;7.69;33.37;102374.20;1649173;87;22096;-68
2021/10/25 13:13:58;;;;;;;9.10;2.75;;;;;;;7.67;33.12;102374.69;1649107;87;22043;-71
2021/10/25 13:17:07;;;;;;;7.75;2.92;;;;;;;7.62;32.98;102375.37;1649469;86;21237;-65
2021/10/25 13:19:18;;;;;;;6.55;2.33;;;;;;;7.56;33.05;102378.23;1636030;87;21495;-71
2021/10/25 13:21:56;;;;;;;3.80;2.10;;;;;;;7.51;33.27;102387.55;1649380;87;21495;-68
2021/10/25 13:24:29;;;;;;;6.05;1.95;;;;;;;7.44;33.22;102390.88;1643451;87;21507;-65
2021/10/25 13:27:08;;;;;;;4.62;1.50;;;;;;;7.40;33.20;102384.55;1643933;87;21512;-62
2021/10/25 13:29:41;;;;;;;5.17;2.10;;;;;;;7.34;33.25;102384.34;1643707;87;21467;-63
2021/10/25 13:32:16;;;;;;;2.62;1.50;;;;;;;7.28;33.43;102386.37;1643955;87;21201;-64
2021/10/25 13:34:54;;;;;;;3.47;1.60;;;;;;;7.22;33.56;102388.77;1645398;87;21213;-65
2021/10/25 13:37:29;;;;;;;6.58;2.33;;;;;;;7.17;33.71;102390.70;1649829;87;21451;-66
2021/10/25 13:40:05;;;;;;;4.30;2.27;;;;;;;7.10;33.93;102393.61;1649941;87;21499;-63
2021/10/25 13:42:41;;;;;;;6.85;1.77;;;;;;;7.04;33.99;102397.78;1649696;87;21237;-65
2021/10/25 13:49:25;;;;;;;3.02;1.62;;;;;;;6.92;34.29;102412.14;1650007;87;21256;-65
2021/10/25 14:00:19;;;;;;;8.58;3.00;;;;;;;6.58;35.01;102415.64;1649335;87;21522;-68
2021/10/25 14:02:55;;;;;;;17.87;4.33;;;;;;;6.42;35.32;102415.39;1649764;87;21306;-69
2021/10/25 14:05:28;;;;;;;11.78;2.80;;;;;;;6.36;35.54;102413.44;1648401;87;21943;-69
2021/10/25 14:08:07;;;;;;;11.65;3.50;;;;;;;6.26;35.74;102422.03;1649801;87;21473;-70
2021/10/25 14:10:48;;;;;;;13.25;5.45;;;;;;;6.17;36.12;102425.42;1649213;87;21366;-69
2021/10/25 14:13:40;;;;;;;46.05;16.50;;;;;;;6.08;36.31;102426.17;1649428;86;21333;-68
2021/10/25 14:18:49;;;;;;;101.87;39.25;;;;;;;5.92;36.83;102424.99;1633433;86;21334;-68
2021/10/25 14:21:39;;;;;;;71.57;28.62;;;;;;;5.82;36.86;102430.10;1651462;86;22046;-68
2021/10/25 14:24:14;;;;;;;29.57;11.53;;;;;;;5.75;36.96;102435.12;1643556;86;21709;-68
2021/10/25 14:26:55;;;;;;;20.82;7.22;;;;;;;5.66;37.11;102439.78;1651615;86;22084;-69
2021/10/25 14:29:30;;;;;;;25.12;9.85;;;;;;;5.57;37.23;102440.91;1652765;86;22065;-69
2021/10/25 14:32:10;;;;;;;33.80;11.70;;;;;;;5.48;37.30;102439.93;1645561;86;21512;-68
2021/10/25 14:34:44;;;;;;;87.78;30.35;;;;;;;5.41;37.53;102435.84;1626262;88;22148;-69
2021/10/25 14:37:20;;;;;;;175.77;63.43;;;;;;;5.32;37.68;102438.30;1626610;88;21329;-69
2021/10/25 14:39:57;;;;;;;280.20;91.10;;;;;;;5.23;37.84;102435.97;1626020;88;21273;-69
2021/10/25 14:42:32;;;;;;;220.07;71.80;;;;;;;5.16;38.17;102437.06;1625080;88;21236;-70
2021/10/25 14:45:30;;;;;;;184.43;59.63;;;;;;;5.09;38.28;102437.30;1624416;88;21316;-70
2021/10/25 14:53:44;;;;;;;786.05;301.73;;;;;;;4.84;38.63;102442.87;1608002;86;22142;-68
2021/10/25 14:56:21;;;;;;;400.15;132.65;;;;;;;4.73;38.80;102455.70;1631296;86;21495;-67
2021/10/25 14:58:59;;;;;;;270.37;76.50;;;;;;;4.64;39.11;102452.53;1652839;86;21997;-68
2021/10/25 15:01:32;;;;;;;277.60;75.78;;;;;;;4.55;39.26;102461.89;1652682;86;21581;-67
2021/10/25 15:04:11;;;;;;;455.18;120.70;;;;;;;4.46;39.64;102466.05;1653140;86;21193;-68
2021/10/25 15:06:45;;;;;;;566.55;167.37;;;;;;;4.38;39.77;102466.70;1652020;86;21245;-67
2021/10/25 15:09:19;;;;;;;438.45;144.40;;;;;;;4.29;40.11;102462.63;1652891;86;21383;-67
2021/10/25 15:11:53;;;;;;;439.17;135.48;;;;;;;4.22;40.42;102466.73;1652779;86;22057;-67
2021/10/25 15:14:31;;;;;;;198.28;62.88;;;;;;;4.13;40.66;102461.80;1647135;86;21307;-67
2021/10/25 15:17:05;;;;;;;132.30;44.80;;;;;;;4.06;40.87;102474.91;1646949;86;21499;-67